createdAt,value
2018-11-25T00:00:11.696Z,25.17
2018-11-25T00:02:40.412Z,22.83
2018-11-25T00:05:09.626Z,20.27
2018-11-25T00:07:51.473Z,19.83
2018-11-25T00:10:20.185Z,21.40
2018-11-25T00:12:48.886Z,21.80
2018-11-25T00:15:17.884Z,20.68
2018-11-25T00:17:46.606Z,22.60
2018-11-25T00:20:15.367Z,20.60
2018-11-25T00:22:44.282Z,21.33
2018-11-25T00:25:14.110Z,20.97
2018-11-25T00:27:42.852Z,19.93
2018-11-25T00:30:13.552Z,21.42
2018-11-25T00:32:42.274Z,23.03
2018-11-25T00:35:12.133Z,21.30
2018-11-25T00:37:48.044Z,21.63
2018-11-25T00:40:10.992Z,18.77
2018-11-25T00:42:40.006Z,19.47
2018-11-25T00:45:11.193Z,20.53
2018-11-25T00:47:40.401Z,21.67
2018-11-25T00:50:11.147Z,22.43
2018-11-25T00:52:39.837Z,19.63
2018-11-25T00:55:11.077Z,20.77
2018-11-25T00:57:39.784Z,20.87
2018-11-25T01:00:15.419Z,20.90
2018-11-25T01:02:44.325Z,20.97
2018-11-25T01:05:13.113Z,21.03
2018-11-25T01:07:41.927Z,20.77
2018-11-25T01:10:13.555Z,19.20
2018-11-25T01:12:42.399Z,21.33
2018-11-25T01:15:18.146Z,21.23
2018-11-25T01:17:46.909Z,20.83
2018-11-25T01:20:20.677Z,19.77
2018-11-25T01:22:49.403Z,21.10
2018-11-25T01:25:18.389Z,21.73
2018-11-25T01:27:47.100Z,19.27
2018-11-25T01:30:17.082Z,19.90
2018-11-25T01:32:45.788Z,19.87
2018-11-25T01:35:14.669Z,18.32
2018-11-25T01:37:43.616Z,20.03
2018-11-25T01:40:14.137Z,18.50
2018-11-25T01:42:43.180Z,20.00
2018-11-25T01:45:13.871Z,19.50
2018-11-25T01:47:42.573Z,21.17
2018-11-25T01:50:13.494Z,20.47
2018-11-25T01:52:42.493Z,21.43
2018-11-25T01:55:14.144Z,23.15
2018-11-25T01:57:43.130Z,22.13
2018-11-25T02:00:19.604Z,23.40
2018-11-25T02:02:48.492Z,22.23
2018-11-25T02:05:17.192Z,23.63
2018-11-25T02:07:45.894Z,22.73
2018-11-25T02:10:16.449Z,23.90
2018-11-25T02:12:45.162Z,24.70
2018-11-25T02:15:14.761Z,22.90
2018-11-25T02:17:43.489Z,22.40
2018-11-25T02:20:18.397Z,23.75
2018-11-25T02:22:47.123Z,23.27
2018-11-25T02:25:15.797Z,22.30
2018-11-25T02:27:44.513Z,24.90
2018-11-25T02:30:14.850Z,22.60
2018-11-25T02:32:43.604Z,22.37
2018-11-25T02:35:12.820Z,22.60
2018-11-25T02:37:41.797Z,23.70
2018-11-25T02:40:13.492Z,25.87
2018-11-25T02:42:42.189Z,24.50
2018-11-25T02:45:17.494Z,22.10
2018-11-25T02:47:46.204Z,24.90
2018-11-25T02:50:31.042Z,21.37
2018-11-25T02:53:07.887Z,23.33
2018-11-25T02:55:36.585Z,25.07
2018-11-25T02:58:05.395Z,29.23
2018-11-25T03:00:34.092Z,28.17
2018-11-25T03:03:02.789Z,26.03
2018-11-25T03:05:31.504Z,23.70
2018-11-25T03:08:00.206Z,26.93
2018-11-25T03:10:29.073Z,25.73
2018-11-25T03:12:57.760Z,27.20
2018-11-25T03:15:26.496Z,28.00
2018-11-25T03:17:55.443Z,27.83
2018-11-25T03:20:24.141Z,30.17
2018-11-25T03:22:52.851Z,26.50
2018-11-25T03:25:21.832Z,27.02
2018-11-25T03:27:50.521Z,25.47
2018-11-25T03:30:20.338Z,25.80
2018-11-25T03:32:49.966Z,30.60
2018-11-25T03:35:18.685Z,28.47
2018-11-25T03:37:47.384Z,26.13
2018-11-25T03:40:17.034Z,24.40
2018-11-25T03:42:45.745Z,27.67
2018-11-25T03:45:20.278Z,28.95
2018-11-25T03:47:49.002Z,24.50
2018-11-25T03:50:17.726Z,27.93
2018-11-25T03:52:46.412Z,28.03
2018-11-25T03:55:15.909Z,29.10
2018-11-25T03:57:44.610Z,27.53
2018-11-25T04:00:14.392Z,26.97
2018-11-25T04:02:43.130Z,26.63
2018-11-25T04:05:13.013Z,26.42
2018-11-25T04:07:41.699Z,29.87
2018-11-25T04:10:11.739Z,27.87
2018-11-25T04:12:40.427Z,27.17
2018-11-25T04:15:21.182Z,27.47
2018-11-25T04:17:49.876Z,27.93
2018-11-25T04:20:20.146Z,25.57
2018-11-25T04:23:09.068Z,27.73
2018-11-25T04:25:37.821Z,26.53
2018-11-25T04:28:06.509Z,26.30
2018-11-25T04:30:35.205Z,28.13
2018-11-25T04:33:03.920Z,27.53
2018-11-25T04:35:32.637Z,26.87
2018-11-25T04:38:01.380Z,29.47
2018-11-25T04:40:30.497Z,26.20
2018-11-25T04:42:59.456Z,25.50
2018-11-25T04:45:28.149Z,29.60
2018-11-25T04:47:56.842Z,27.73
2018-11-25T04:50:25.534Z,25.92
2018-11-25T04:52:54.229Z,25.27
2018-11-25T04:55:22.920Z,26.30
2018-11-25T04:57:52.245Z,29.40
2018-11-25T05:00:20.994Z,26.80
2018-11-25T05:02:50.445Z,26.47
2018-11-25T05:05:19.214Z,28.65
2018-11-25T05:07:47.936Z,28.80
2018-11-25T05:10:17.360Z,26.33
2018-11-25T05:12:46.415Z,26.87
2018-11-25T05:15:17.765Z,32.93
2018-11-25T05:17:46.510Z,26.17
2018-11-25T05:20:15.681Z,31.47
2018-11-25T05:22:44.375Z,26.47
2018-11-25T05:25:17.627Z,26.97
2018-11-25T05:27:46.333Z,28.70
2018-11-25T05:30:15.825Z,31.85
2018-11-25T05:32:44.524Z,31.42
2018-11-25T05:35:14.284Z,25.30
2018-11-25T05:37:43.010Z,30.55
2018-11-25T05:40:14.511Z,27.35
2018-11-25T05:42:43.300Z,26.47
2018-11-25T05:45:17.769Z,30.97
2018-11-25T05:47:46.488Z,28.30
2018-11-25T05:50:15.999Z,25.43
2018-11-25T05:52:44.683Z,31.97
2018-11-25T05:55:13.698Z,31.30
2018-11-25T05:57:42.574Z,26.17
2018-11-25T06:00:31.855Z,26.57
2018-11-25T06:03:00.903Z,29.67
2018-11-25T06:05:29.874Z,27.70
2018-11-25T06:07:58.576Z,26.53
2018-11-25T06:10:27.291Z,26.23
2018-11-25T06:12:55.992Z,29.27
2018-11-25T06:15:24.669Z,27.03
2018-11-25T06:17:53.364Z,27.37
2018-11-25T06:20:22.069Z,27.55
2018-11-25T06:22:50.757Z,30.50
2018-11-25T06:25:20.462Z,27.63
2018-11-25T06:27:49.146Z,30.87
2018-11-25T06:30:19.506Z,28.57
2018-11-25T06:32:48.313Z,26.17
2018-11-25T06:35:18.820Z,33.80
2018-11-25T06:37:47.535Z,26.20
2018-11-25T06:40:17.142Z,26.85
2018-11-25T06:42:45.878Z,31.23
2018-11-25T06:45:18.915Z,27.60
2018-11-25T06:47:47.861Z,30.53
2018-11-25T06:50:16.552Z,28.33
2018-11-25T06:52:45.258Z,30.17
2018-11-25T06:55:13.945Z,30.33
2018-11-25T06:57:42.902Z,28.23
2018-11-25T07:00:14.721Z,30.50
2018-11-25T07:02:43.453Z,31.50
2018-11-25T07:05:12.103Z,30.60
2018-11-25T07:07:40.787Z,33.77
2018-11-25T07:10:15.439Z,31.37
2018-11-25T07:12:44.229Z,37.70
2018-11-25T07:15:14.041Z,32.57
2018-11-25T07:17:42.728Z,33.33
2018-11-25T07:20:12.353Z,29.18
2018-11-25T07:22:41.385Z,31.07
2018-11-25T07:25:15.656Z,32.20
2018-11-25T07:27:44.352Z,30.40
2018-11-25T07:30:24.667Z,36.20
2018-11-25T07:32:53.458Z,31.03
2018-11-25T07:35:23.989Z,31.73
2018-11-25T07:37:52.686Z,29.43
2018-11-25T07:40:21.971Z,34.97
2018-11-25T07:42:50.703Z,29.17
2018-11-25T07:45:21.233Z,27.83
2018-11-25T07:47:49.917Z,28.43
2018-11-25T07:50:18.672Z,27.53
2018-11-25T07:52:47.976Z,26.60
2018-11-25T07:55:17.807Z,27.22
2018-11-25T07:57:47.077Z,31.17
2018-11-25T08:00:18.541Z,25.97
2018-11-25T08:02:47.252Z,27.93
2018-11-25T08:05:20.948Z,27.37
2018-11-25T08:07:49.830Z,28.50
2018-11-25T08:10:18.562Z,26.47
2018-11-25T08:12:47.589Z,29.73
2018-11-25T08:15:17.449Z,32.70
2018-11-25T08:17:46.204Z,28.53
2018-11-25T08:20:15.892Z,28.27
2018-11-25T08:22:44.596Z,30.07
2018-11-25T08:25:17.266Z,31.00
2018-11-25T08:27:45.977Z,26.43
2018-11-25T08:30:16.373Z,30.12
2018-11-25T08:32:45.074Z,28.97
2018-11-25T08:35:14.463Z,24.53
2018-11-25T08:37:43.169Z,26.93
2018-11-25T08:40:16.679Z,27.37
2018-11-25T08:42:45.382Z,27.80
2018-11-25T08:45:14.530Z,27.17
2018-11-25T08:47:43.492Z,23.90
2018-11-25T08:50:15.030Z,26.67
2018-11-25T08:52:45.520Z,23.80
2018-11-25T08:55:17.404Z,26.20
2018-11-25T08:57:46.184Z,23.30
2018-11-25T09:00:15.955Z,23.37
2018-11-25T09:02:44.676Z,25.73
2018-11-25T09:05:14.399Z,23.98
2018-11-25T09:07:43.240Z,24.13
2018-11-25T09:10:14.085Z,24.92
2018-11-25T09:12:43.181Z,27.00
2018-11-25T09:15:13.393Z,25.73
2018-11-25T09:17:42.233Z,23.50
2018-11-25T09:20:13.986Z,25.82
2018-11-25T09:22:42.868Z,24.05
2018-11-25T09:25:14.279Z,24.92
2018-11-25T09:27:42.984Z,23.57
2018-11-25T09:30:13.285Z,25.20
2018-11-25T09:32:42.109Z,23.60
2018-11-25T09:35:10.812Z,25.33
2018-11-25T09:37:39.689Z,25.50
2018-11-25T09:40:25.332Z,22.95
2018-11-25T09:42:54.021Z,25.67
2018-11-25T09:45:22.737Z,27.60
2018-11-25T09:47:51.648Z,26.90
2018-11-25T09:50:21.599Z,26.00
2018-11-25T09:52:50.552Z,26.37
2018-11-25T09:55:20.696Z,25.08
2018-11-25T09:57:55.898Z,25.27
2018-11-25T10:00:28.322Z,25.13
2018-11-25T10:02:57.113Z,24.17
2018-11-25T10:05:25.948Z,28.17
2018-11-25T10:07:54.788Z,26.00
2018-11-25T10:10:24.251Z,24.33
2018-11-25T10:12:52.945Z,24.03
2018-11-25T10:15:25.869Z,25.37
2018-11-25T10:17:59.327Z,25.97
2018-11-25T10:20:27.276Z,24.43
2018-11-25T10:22:55.990Z,25.43
2018-11-25T10:25:24.673Z,25.70
2018-11-25T10:27:53.632Z,27.13
2018-11-25T10:30:24.898Z,24.55
2018-11-25T10:32:55.077Z,25.73
2018-11-25T10:35:23.794Z,23.63
2018-11-25T10:37:52.481Z,24.25
2018-11-25T10:40:22.242Z,25.80
2018-11-25T10:42:51.028Z,26.23
2018-11-25T10:45:23.966Z,28.27
2018-11-25T10:47:52.705Z,25.83
2018-11-25T10:50:21.965Z,26.57
2018-11-25T10:52:50.933Z,23.27
2018-11-25T10:55:20.588Z,25.00
2018-11-25T10:57:50.700Z,24.73
2018-11-25T11:00:28.838Z,27.98
2018-11-25T11:03:02.839Z,25.37
2018-11-25T11:05:36.966Z,26.77
2018-11-25T11:08:06.705Z,26.37
2018-11-25T11:10:35.413Z,25.60
2018-11-25T11:13:04.417Z,27.63
2018-11-25T11:15:33.117Z,27.30
2018-11-25T11:18:01.902Z,26.20
2018-11-25T11:20:30.853Z,26.83
2018-11-25T11:22:59.705Z,26.60
2018-11-25T11:25:28.417Z,24.73
2018-11-25T11:27:57.256Z,27.07
2018-11-25T11:30:25.973Z,26.50
2018-11-25T11:32:54.929Z,25.43
2018-11-25T11:35:23.640Z,24.30
2018-11-25T11:37:52.737Z,23.40
2018-11-25T11:40:21.532Z,24.07
2018-11-25T11:42:50.276Z,24.90
2018-11-25T11:45:19.009Z,25.85
2018-11-25T11:47:47.851Z,25.47
2018-11-25T11:50:19.104Z,22.87
2018-11-25T11:52:47.936Z,27.87
2018-11-25T11:55:17.540Z,27.87
2018-11-25T11:57:47.153Z,27.70
2018-11-25T12:00:21.413Z,25.43
2018-11-25T12:02:50.516Z,28.17
2018-11-25T12:05:19.657Z,28.57
2018-11-25T12:08:04.864Z,28.43
2018-11-25T12:10:33.820Z,27.77
2018-11-25T12:13:02.561Z,27.60
2018-11-25T12:15:32.073Z,26.30
2018-11-25T12:18:00.889Z,29.67
2018-11-25T12:20:30.974Z,31.48
2018-11-25T12:23:00.122Z,30.47
2018-11-25T12:25:28.828Z,29.33
2018-11-25T12:27:57.634Z,28.60
2018-11-25T12:30:26.345Z,30.10
2018-11-25T12:32:55.570Z,27.83
2018-11-25T12:35:24.330Z,31.20
2018-11-25T12:37:53.018Z,30.03
2018-11-25T12:40:22.761Z,26.60
2018-11-25T12:42:54.529Z,29.90
2018-11-25T12:45:23.357Z,29.50
2018-11-25T12:47:52.366Z,27.63
2018-11-25T12:50:22.262Z,28.80
2018-11-25T12:52:51.377Z,28.03
2018-11-25T12:55:21.265Z,27.63
2018-11-25T12:57:49.993Z,29.53
2018-11-25T13:00:30.201Z,26.10
2018-11-25T13:02:59.024Z,29.53
2018-11-25T13:05:28.045Z,26.50
2018-11-25T13:07:56.764Z,27.70
2018-11-25T13:10:25.704Z,29.63
2018-11-25T13:12:54.410Z,26.23
2018-11-25T13:15:23.110Z,30.30
2018-11-25T13:17:51.819Z,29.10
2018-11-25T13:20:20.600Z,28.67
2018-11-25T13:22:49.322Z,27.87
2018-11-25T13:25:18.488Z,28.53
2018-11-25T13:27:47.404Z,29.87
2018-11-25T13:30:20.206Z,28.70
2018-11-25T13:32:48.017Z,31.97
2018-11-25T13:35:16.757Z,27.52
2018-11-25T13:37:45.477Z,28.60
2018-11-25T13:40:15.252Z,29.87
2018-11-25T13:42:43.960Z,29.48
2018-11-25T13:45:13.435Z,30.63
2018-11-25T13:47:42.149Z,34.47
2018-11-25T13:50:11.785Z,29.57
2018-11-25T13:52:40.495Z,29.57
2018-11-25T13:55:14.373Z,31.77
2018-11-25T13:57:43.085Z,29.20
2018-11-25T14:00:19.901Z,32.53
2018-11-25T14:02:53.197Z,29.00
2018-11-25T14:05:22.001Z,29.13
2018-11-25T14:07:50.962Z,33.23
2018-11-25T14:10:22.789Z,33.28
2018-11-25T14:12:51.509Z,30.70
2018-11-25T14:15:20.233Z,32.93
2018-11-25T14:17:48.934Z,32.03
2018-11-25T14:20:17.644Z,32.53
2018-11-25T14:22:46.623Z,32.53
2018-11-25T14:25:16.832Z,31.27
2018-11-25T14:27:46.442Z,33.17
2018-11-25T14:30:20.371Z,31.57
2018-11-25T14:32:49.122Z,32.60
2018-11-25T14:35:17.970Z,31.95
2018-11-25T14:37:46.681Z,32.70
2018-11-25T14:40:16.809Z,31.95
2018-11-25T14:42:45.649Z,31.23
2018-11-25T14:45:15.534Z,32.03
2018-11-25T14:47:44.233Z,30.70
2018-11-25T14:50:14.558Z,30.10
2018-11-25T14:52:44.503Z,30.00
2018-11-25T14:55:13.898Z,32.30
2018-11-25T14:57:42.629Z,30.37
2018-11-25T15:00:19.521Z,31.13
2018-11-25T15:02:55.372Z,32.17
2018-11-25T15:05:30.753Z,31.47
2018-11-25T15:07:59.469Z,28.83
2018-11-25T15:10:28.300Z,35.50
2018-11-25T15:12:57.316Z,29.73
2018-11-25T15:15:26.024Z,31.83
2018-11-25T15:17:54.841Z,32.40
2018-11-25T15:20:23.554Z,33.30
2018-11-25T15:22:55.124Z,30.03
2018-11-25T15:25:26.749Z,35.58
2018-11-25T15:27:55.490Z,32.73
2018-11-25T15:30:24.185Z,31.53
2018-11-25T15:32:52.897Z,36.63
2018-11-25T15:35:21.918Z,33.75
2018-11-25T15:37:51.604Z,32.10
2018-11-25T15:40:27.584Z,32.83
2018-11-25T15:42:57.218Z,34.73
2018-11-25T15:45:26.176Z,37.40
2018-11-25T15:47:58.017Z,31.10
2018-11-25T15:50:27.937Z,30.47
2018-11-25T15:52:56.844Z,32.57
2018-11-25T15:55:25.654Z,34.25
2018-11-25T15:57:54.382Z,33.63
2018-11-25T16:00:24.331Z,34.43
2018-11-25T16:02:53.300Z,30.63
2018-11-25T16:05:28.430Z,31.17
2018-11-25T16:07:57.129Z,32.57
2018-11-25T16:10:25.857Z,29.27
2018-11-25T16:12:54.609Z,28.67
2018-11-25T16:15:25.844Z,28.47
2018-11-25T16:17:54.554Z,29.13
2018-11-25T16:20:25.452Z,27.53
2018-11-25T16:23:00.697Z,39.43
2018-11-25T16:25:39.189Z,34.30
2018-11-25T16:28:11.177Z,36.30
2018-11-25T16:30:39.878Z,37.53
2018-11-25T16:33:08.845Z,32.03
2018-11-25T16:35:37.840Z,31.20
2018-11-25T16:38:07.299Z,30.03
2018-11-25T16:40:37.486Z,28.47
2018-11-25T16:43:23.070Z,28.00
2018-11-25T16:45:51.941Z,29.27
2018-11-25T16:48:20.655Z,30.17
2018-11-25T16:50:49.373Z,33.97
2018-11-25T16:53:18.300Z,28.70
2018-11-25T16:55:47.160Z,30.55
2018-11-25T16:58:15.868Z,28.83
2018-11-25T17:00:44.569Z,29.80
2018-11-25T17:03:13.265Z,31.43
2018-11-25T17:05:43.765Z,30.53
2018-11-25T17:08:19.921Z,32.90
2018-11-25T17:10:48.933Z,29.80
2018-11-25T17:13:17.699Z,27.87
2018-11-25T17:15:46.401Z,29.53
2018-11-25T17:18:15.573Z,30.97
2018-11-25T17:20:45.836Z,33.47
2018-11-25T17:23:14.569Z,32.70
2018-11-25T17:25:43.248Z,33.47
2018-11-25T17:28:12.060Z,29.50
2018-11-25T17:30:40.746Z,29.93
2018-11-25T17:33:09.538Z,32.25
2018-11-25T17:35:38.600Z,30.67
2018-11-25T17:38:07.581Z,28.83
2018-11-25T17:40:36.517Z,30.07
2018-11-25T17:43:06.385Z,28.87
2018-11-25T17:45:35.741Z,31.60
2018-11-25T17:48:04.724Z,30.20
2018-11-25T17:50:33.720Z,31.60
2018-11-25T17:53:02.718Z,33.40
2018-11-25T17:55:32.256Z,35.80
2018-11-25T17:58:00.961Z,32.97
2018-11-25T18:00:49.876Z,32.30
2018-11-25T18:03:22.810Z,29.03
2018-11-25T18:05:51.516Z,33.03
2018-11-25T18:08:20.226Z,32.90
2018-11-25T18:10:48.921Z,33.73
2018-11-25T18:13:19.470Z,32.57
2018-11-25T18:15:48.488Z,31.37
2018-11-25T18:18:23.432Z,35.03
2018-11-25T18:20:56.243Z,32.40
2018-11-25T18:23:25.001Z,37.30
2018-11-25T18:25:53.700Z,34.50
2018-11-25T18:28:22.728Z,35.88
2018-11-25T18:30:51.446Z,33.17
2018-11-25T18:33:20.392Z,34.45
2018-11-25T18:35:49.377Z,32.57
2018-11-25T18:38:18.357Z,32.47
2018-11-25T18:40:47.344Z,38.33
2018-11-25T18:43:16.336Z,38.15
2018-11-25T18:45:45.345Z,35.23
2018-11-25T18:48:15.464Z,37.97
2018-11-25T18:50:44.544Z,35.47
2018-11-25T18:53:13.647Z,33.55
2018-11-25T18:55:41.461Z,37.93
2018-11-25T18:58:10.200Z,38.50
2018-11-25T19:00:46.310Z,32.27
2018-11-25T19:03:15.341Z,36.03
2018-11-25T19:05:44.350Z,39.00
2018-11-25T19:08:13.338Z,38.80
2018-11-25T19:10:42.049Z,37.17
2018-11-25T19:13:11.017Z,38.05
2018-11-25T19:15:40.013Z,40.27
2018-11-25T19:18:09.432Z,39.60
2018-11-25T19:20:38.284Z,39.47
2018-11-25T19:23:07.384Z,35.83
2018-11-25T19:25:36.878Z,36.63
2018-11-25T19:28:08.020Z,38.90
2018-11-25T19:30:37.277Z,38.57
2018-11-25T19:33:08.797Z,35.70
2018-11-25T19:35:38.501Z,34.40
2018-11-25T19:38:08.275Z,38.30
2018-11-25T19:40:38.225Z,37.53
2018-11-25T19:43:07.953Z,36.03
2018-11-25T19:45:37.422Z,35.03
2018-11-25T19:48:06.217Z,38.83
2018-11-25T19:50:37.134Z,40.25
2018-11-25T19:53:07.797Z,39.13
2018-11-25T19:55:37.133Z,37.87
2018-11-25T19:58:06.456Z,37.10
2018-11-25T20:00:36.082Z,40.53
2018-11-25T20:03:05.177Z,39.97
2018-11-25T20:05:35.209Z,42.20
2018-11-25T20:08:03.902Z,40.97
2018-11-25T20:10:33.797Z,42.17
2018-11-25T20:13:02.517Z,39.67
2018-11-25T20:15:31.258Z,39.73
2018-11-25T20:17:59.941Z,37.73
2018-11-25T20:20:28.862Z,45.57
2018-11-25T20:22:57.558Z,40.17
2018-11-25T20:25:26.516Z,39.55
2018-11-25T20:27:57.243Z,38.80
2018-11-25T20:30:28.178Z,41.67
2018-11-25T20:33:02.717Z,40.17
2018-11-25T20:35:31.416Z,37.63
2018-11-25T20:38:05.767Z,37.13
2018-11-25T20:40:34.465Z,39.23
2018-11-25T20:43:03.166Z,38.30
2018-11-25T20:45:38.939Z,40.43
2018-11-25T20:48:06.062Z,37.13
2018-11-25T20:50:35.211Z,40.97
2018-11-25T20:53:09.276Z,37.40
2018-11-25T20:55:37.989Z,37.30
2018-11-25T20:58:08.048Z,34.37
2018-11-25T21:00:37.037Z,34.53
2018-11-25T21:03:08.076Z,34.13
2018-11-25T21:05:43.452Z,34.37
2018-11-25T21:08:12.162Z,32.67
2018-11-25T21:10:42.122Z,35.43
2018-11-25T21:13:10.862Z,29.77
2018-11-25T21:15:39.883Z,31.40
2018-11-25T21:18:08.855Z,32.80
2018-11-25T21:20:37.597Z,33.03
2018-11-25T21:23:06.512Z,33.30
2018-11-25T21:25:36.143Z,33.37
2018-11-25T21:28:05.249Z,36.23
2018-11-25T21:30:34.414Z,33.20
2018-11-25T21:33:03.427Z,32.80
2018-11-25T21:35:32.438Z,34.77
2018-11-25T21:38:01.404Z,33.30
2018-11-25T21:40:30.114Z,35.43
2018-11-25T21:42:59.033Z,39.03
2018-11-25T21:45:27.733Z,38.30
2018-11-25T21:47:56.436Z,35.53
2018-11-25T21:50:26.356Z,36.45
2018-11-25T21:52:55.960Z,37.57
2018-11-25T21:55:25.034Z,36.57
2018-11-25T21:57:53.725Z,39.10
2018-11-25T22:00:23.583Z,38.60
2018-11-25T22:02:52.281Z,40.30
2018-11-25T22:05:24.790Z,41.57
2018-11-25T22:07:49.990Z,39.93
2018-11-25T22:10:19.852Z,41.77
2018-11-25T22:12:48.744Z,37.13
2018-11-25T22:15:18.349Z,38.47
2018-11-25T22:17:47.045Z,40.08
2018-11-25T22:20:16.346Z,39.47
2018-11-25T22:22:45.297Z,42.37
2018-11-25T22:25:14.868Z,39.92
2018-11-25T22:27:43.698Z,42.80
2018-11-25T22:30:22.605Z,42.87
2018-11-25T22:32:51.368Z,39.30
2018-11-25T22:35:21.947Z,42.80
2018-11-25T22:37:50.642Z,41.53
2018-11-25T22:40:19.868Z,42.48
2018-11-25T22:42:49.237Z,42.33
2018-11-25T22:45:19.072Z,38.97
2018-11-25T22:47:47.753Z,43.50
2018-11-25T22:50:17.965Z,43.90
2018-11-25T22:52:46.865Z,38.90
2018-11-25T22:55:20.442Z,42.63
2018-11-25T22:57:49.212Z,40.83
2018-11-25T23:00:25.880Z,41.57
2018-11-25T23:02:54.577Z,43.17
2018-11-25T23:05:34.925Z,39.23
2018-11-25T23:08:03.630Z,40.80
2018-11-25T23:10:32.315Z,41.08
2018-11-25T23:13:01.040Z,42.10
2018-11-25T23:15:30.494Z,40.80
2018-11-25T23:17:59.184Z,41.67
2018-11-25T23:20:27.878Z,42.47
2018-11-25T23:22:56.572Z,40.90
2018-11-25T23:25:25.849Z,41.27
2018-11-25T23:27:55.135Z,42.43
2018-11-25T23:30:23.816Z,41.27
2018-11-25T23:32:52.537Z,42.33
2018-11-25T23:35:23.770Z,42.40
2018-11-25T23:37:52.641Z,41.80
2018-11-25T23:40:21.342Z,40.50
2018-11-25T23:42:50.220Z,41.80
2018-11-25T23:45:18.956Z,44.90
2018-11-25T23:47:47.641Z,42.30
2018-11-25T23:50:16.356Z,43.02
2018-11-25T23:52:46.057Z,41.93
2018-11-25T23:55:15.096Z,43.13
2018-11-25T23:57:43.969Z,41.90
